Weather at Skarva Airfield

Public forecast

Using degrees Celsius for public forecast. Weather courtesy of forecast.io.

Closest aviation weather report (METAR) to Skarva Airfield

Closest report is Trondheim Airport, Værnes, 25.8 nm (47.8 km) SSW.

2024/05/20 04:50 (retrieved 36 minutes ago)

ENVA 200450Z 12008KT CAVOK 03/00 Q1022 NOSIG RMK WIND 670FT 11006KT

Closest aviation forecast (TAF) to Skarva Airfield

Forecast is more than 6 hours old.

Closest forecast is Rae Lakes Airport, 2,796.6 nm (5,179.3 km) NNW.

2024/05/19 21:12 Ammendment (retrieved 8 hours ago)

TAF AMD TAF AMD CYRA 192109Z 1921/1924 16005KT P6SM SCT030 SCT180 TEMPO 1921/1924 BKN030 BKN180 RMK NXT FCST BY 201600Z